createdAt,value
2019-05-22T00:00:49.005Z,0.00
2019-05-22T00:01:48.950Z,0.00
2019-05-22T00:02:48.928Z,0.00
2019-05-22T00:03:48.846Z,0.00
2019-05-22T00:04:48.800Z,0.00
2019-05-22T00:05:48.743Z,0.00
2019-05-22T00:06:48.693Z,0.00
2019-05-22T00:07:48.680Z,0.00
2019-05-22T00:08:48.590Z,0.00
2019-05-22T00:09:48.540Z,0.00
2019-05-22T00:10:48.487Z,0.00
2019-05-22T00:11:48.433Z,0.00
2019-05-22T00:12:48.432Z,0.00
2019-05-22T00:13:48.334Z,0.00
2019-05-22T00:14:48.278Z,0.00
2019-05-22T00:15:48.259Z,0.00
2019-05-22T00:16:48.176Z,0.00
2019-05-22T00:17:48.124Z,0.00
2019-05-22T00:18:48.103Z,0.00
2019-05-22T00:19:48.083Z,0.00
2019-05-22T00:20:47.967Z,0.00
2019-05-22T00:21:47.916Z,0.00
2019-05-22T00:22:47.865Z,0.00
2019-05-22T00:23:47.911Z,0.00
2019-05-22T00:24:47.763Z,0.00
2019-05-22T00:25:47.743Z,0.00
2019-05-22T00:26:47.658Z,0.00
2019-05-22T00:27:47.605Z,0.00
2019-05-22T00:28:47.585Z,0.00
2019-05-22T00:29:47.517Z,0.00
2019-05-22T00:30:47.452Z,0.00
2019-05-22T00:31:47.431Z,0.00
2019-05-22T00:32:47.369Z,0.00
2019-05-22T00:33:47.295Z,0.00
2019-05-22T00:34:47.275Z,0.00
2019-05-22T00:35:47.191Z,0.00
2019-05-22T00:36:47.140Z,0.00
2019-05-22T00:37:47.090Z,0.00
2019-05-22T00:38:47.038Z,0.00
2019-05-22T00:39:47.015Z,0.00
2019-05-22T00:40:46.932Z,0.00
2019-05-22T00:41:46.879Z,0.00
2019-05-22T00:43:01.153Z,0.00
2019-05-22T00:43:46.780Z,0.00
2019-05-22T00:44:46.758Z,0.00
2019-05-22T00:45:46.680Z,0.00
2019-05-22T00:46:46.624Z,0.00
2019-05-22T00:47:46.571Z,0.00
2019-05-22T00:48:46.551Z,0.00
2019-05-22T00:49:46.472Z,0.00
2019-05-22T00:50:46.428Z,0.00
2019-05-22T00:51:46.364Z,0.00
2019-05-22T00:52:46.318Z,0.00
2019-05-22T00:53:46.290Z,0.00
2019-05-22T00:54:46.211Z,0.00
2019-05-22T00:55:46.158Z,0.00
2019-05-22T00:56:46.142Z,0.00
2019-05-22T00:57:46.055Z,0.00
2019-05-22T00:58:46.004Z,0.00
2019-05-22T00:59:45.963Z,0.00
2019-05-22T01:00:45.938Z,0.00
2019-05-22T01:01:45.855Z,0.00
2019-05-22T01:02:45.799Z,0.00
2019-05-22T01:03:45.745Z,0.00
2019-05-22T01:04:45.726Z,0.00
2019-05-22T01:05:45.673Z,0.00
2019-05-22T01:06:45.592Z,0.00
2019-05-22T01:07:45.537Z,0.00
2019-05-22T01:08:45.490Z,0.00
2019-05-22T01:09:45.436Z,0.00
2019-05-22T01:10:45.414Z,0.00
2019-05-22T01:11:45.338Z,0.00
2019-05-22T01:12:45.280Z,0.00
2019-05-22T01:13:45.229Z,0.00
2019-05-22T01:14:45.175Z,0.00
2019-05-22T01:15:45.170Z,0.00
2019-05-22T01:16:45.074Z,0.00
2019-05-22T01:17:45.184Z,0.00
2019-05-22T01:18:44.974Z,0.00
2019-05-22T01:19:44.917Z,0.00
2019-05-22T01:20:44.896Z,0.00
2019-05-22T01:21:44.844Z,0.00
2019-05-22T01:22:47.319Z,0.00
2019-05-22T01:23:44.711Z,0.00
2019-05-22T01:24:44.658Z,0.00
2019-05-22T01:25:44.607Z,0.00
2019-05-22T01:26:44.589Z,0.00
2019-05-22T01:27:44.505Z,0.00
2019-05-22T01:28:44.451Z,0.00
2019-05-22T01:29:44.402Z,0.00
2019-05-22T01:30:44.346Z,0.00
2019-05-22T01:31:44.327Z,0.00
2019-05-22T01:32:44.244Z,0.00
2019-05-22T01:33:44.193Z,0.00
2019-05-22T01:34:44.143Z,0.00
2019-05-22T01:35:44.089Z,0.00
2019-05-22T01:36:44.071Z,0.00
2019-05-22T01:37:44.017Z,0.00
2019-05-22T01:38:43.963Z,0.00
2019-05-22T01:39:43.887Z,0.00
2019-05-22T01:40:43.830Z,0.00
2019-05-22T01:41:43.778Z,0.00
2019-05-22T01:42:43.758Z,0.00
2019-05-22T01:43:43.679Z,0.00
2019-05-22T01:44:59.750Z,0.00
2019-05-22T01:45:43.570Z,0.00
2019-05-22T01:46:43.548Z,0.00
2019-05-22T01:47:43.472Z,0.00
2019-05-22T01:48:43.415Z,0.00
2019-05-22T01:49:43.401Z,0.00
2019-05-22T01:50:43.317Z,0.00
2019-05-22T01:51:43.260Z,0.00
2019-05-22T01:52:43.233Z,0.00
2019-05-22T01:53:43.162Z,0.00
2019-05-22T01:54:43.106Z,0.00
2019-05-22T01:55:43.055Z,0.00
2019-05-22T01:56:43.038Z,0.00
2019-05-22T01:57:42.978Z,0.00
2019-05-22T01:58:42.906Z,0.00
2019-05-22T01:59:42.848Z,0.00
2019-05-22T02:00:42.828Z,0.00
2019-05-22T02:01:42.743Z,0.00
2019-05-22T02:02:42.701Z,0.00
2019-05-22T02:03:42.638Z,0.00
2019-05-22T02:04:42.587Z,0.00
2019-05-22T02:05:42.568Z,0.00
2019-05-22T02:06:42.485Z,0.00
2019-05-22T02:07:42.446Z,0.00
2019-05-22T02:08:42.404Z,0.00
2019-05-22T02:09:42.330Z,0.00
2019-05-22T02:10:42.276Z,0.00
2019-05-22T02:11:42.227Z,0.00
2019-05-22T02:12:42.173Z,0.00
2019-05-22T02:13:42.169Z,0.00
2019-05-22T02:14:42.073Z,0.00
2019-05-22T02:15:42.017Z,0.00
2019-05-22T02:16:55.483Z,0.00
2019-05-22T02:17:41.915Z,0.00
2019-05-22T02:18:41.892Z,0.00
2019-05-22T02:19:41.810Z,0.00
2019-05-22T02:20:41.765Z,0.00
2019-05-22T02:21:41.717Z,0.00
2019-05-22T02:22:41.655Z,0.00
2019-05-22T02:23:41.634Z,0.00
2019-05-22T02:24:41.553Z,0.00
2019-05-22T02:25:41.542Z,0.00
2019-05-22T02:26:41.448Z,0.00
2019-05-22T02:27:41.395Z,0.00
2019-05-22T02:28:41.343Z,0.00
2019-05-22T02:29:41.296Z,0.00
2019-05-22T02:30:41.291Z,0.00
2019-05-22T02:31:41.195Z,0.00
2019-05-22T02:32:41.206Z,0.00
2019-05-22T02:33:41.083Z,0.00
2019-05-22T02:34:41.036Z,0.00
2019-05-22T02:35:41.026Z,0.00
2019-05-22T02:36:40.945Z,0.00
2019-05-22T02:37:40.883Z,0.00
2019-05-22T02:38:40.827Z,0.00
2019-05-22T02:39:40.776Z,0.00
2019-05-22T02:40:40.768Z,0.00
2019-05-22T02:41:40.671Z,0.00
2019-05-22T02:42:40.621Z,0.00
2019-05-22T02:43:40.566Z,0.00
2019-05-22T02:44:40.514Z,0.00
2019-05-22T02:45:40.494Z,0.00
2019-05-22T02:46:40.412Z,0.00
2019-05-22T02:47:40.363Z,0.00
2019-05-22T02:48:42.382Z,0.00
2019-05-22T02:49:40.256Z,0.00
2019-05-22T02:50:40.238Z,0.00
2019-05-22T02:51:40.195Z,0.00
2019-05-22T02:52:40.100Z,0.00
2019-05-22T02:53:40.080Z,0.00
2019-05-22T02:54:39.997Z,0.00
2019-05-22T02:55:39.946Z,0.00
2019-05-22T02:56:39.937Z,0.00
2019-05-22T02:57:39.844Z,0.00
2019-05-22T02:58:39.789Z,0.00
2019-05-22T02:59:39.738Z,0.00
2019-05-22T03:00:39.701Z,0.00
2019-05-22T03:01:39.665Z,0.00
2019-05-22T03:02:39.581Z,0.00
2019-05-22T03:03:39.563Z,0.00
2019-05-22T03:04:39.483Z,0.00
2019-05-22T03:05:39.426Z,0.00
2019-05-22T03:06:39.384Z,0.00
2019-05-22T03:07:39.355Z,0.00
2019-05-22T03:08:39.305Z,0.00
2019-05-22T03:09:39.237Z,0.00
2019-05-22T03:10:39.166Z,0.00
2019-05-22T03:11:39.123Z,0.00
2019-05-22T03:12:39.106Z,0.00
2019-05-22T03:13:39.009Z,0.00
2019-05-22T03:14:38.958Z,0.00
2019-05-22T03:15:38.907Z,0.00
2019-05-22T03:16:38.855Z,0.00
2019-05-22T03:17:38.845Z,4.00
2019-05-22T03:18:38.751Z,4.00
2019-05-22T03:19:38.698Z,4.00
2019-05-22T03:20:38.678Z,4.00
2019-05-22T03:21:38.599Z,0.00
2019-05-22T03:22:38.580Z,0.00
2019-05-22T03:23:38.496Z,4.00
2019-05-22T03:24:38.440Z,4.00
2019-05-22T03:25:38.422Z,4.00
2019-05-22T03:26:38.336Z,4.00
2019-05-22T03:27:38.284Z,4.00
2019-05-22T03:28:38.233Z,8.00
2019-05-22T03:29:38.185Z,8.00
2019-05-22T03:30:38.182Z,8.00
2019-05-22T03:31:38.080Z,8.00
2019-05-22T03:32:43.407Z,8.00
2019-05-22T03:33:37.972Z,8.00
2019-05-22T03:34:37.930Z,12.00
2019-05-22T03:35:37.900Z,12.00
2019-05-22T03:36:37.817Z,12.00
2019-05-22T03:37:37.795Z,12.00
2019-05-22T03:38:37.710Z,16.00
2019-05-22T03:39:37.664Z,12.00
2019-05-22T03:40:37.607Z,16.00
2019-05-22T03:41:37.556Z,16.00
2019-05-22T03:42:37.537Z,20.00
2019-05-22T03:43:37.453Z,24.00
2019-05-22T03:44:37.404Z,20.00
2019-05-22T03:45:37.382Z,20.00
2019-05-22T03:46:37.306Z,24.00
2019-05-22T03:47:37.276Z,28.00
2019-05-22T03:48:37.195Z,28.00
2019-05-22T03:49:37.147Z,24.00
2019-05-22T03:50:37.092Z,28.00
2019-05-22T03:51:37.044Z,24.00
2019-05-22T03:52:37.019Z,24.00
2019-05-22T03:53:36.964Z,28.00
2019-05-22T03:54:36.887Z,32.00
2019-05-22T03:55:36.833Z,32.00
2019-05-22T03:56:36.788Z,36.00
2019-05-22T03:57:36.726Z,36.00
2019-05-22T03:58:36.703Z,32.00
2019-05-22T03:59:36.621Z,36.00
2019-05-22T04:00:36.574Z,36.00
2019-05-22T04:01:36.527Z,36.00
2019-05-22T04:02:36.477Z,32.00
2019-05-22T04:03:36.446Z,36.00
2019-05-22T04:04:36.362Z,36.00
2019-05-22T04:05:36.309Z,32.00
2019-05-22T04:06:36.262Z,36.00
2019-05-22T04:07:36.211Z,36.00
2019-05-22T04:08:36.187Z,32.00
2019-05-22T04:09:36.103Z,32.00
2019-05-22T04:10:36.056Z,32.00
2019-05-22T04:11:35.999Z,32.00
2019-05-22T04:12:35.969Z,36.00
2019-05-22T04:13:35.946Z,36.00
2019-05-22T04:14:35.843Z,44.00
2019-05-22T04:15:35.790Z,40.00
2019-05-22T04:16:35.741Z,44.00
2019-05-22T04:17:35.717Z,44.00
2019-05-22T04:18:35.674Z,44.00
2019-05-22T04:19:48.556Z,44.00
2019-05-22T04:20:35.535Z,48.00
2019-05-22T04:21:35.489Z,48.00
2019-05-22T04:22:35.431Z,52.00
2019-05-22T04:23:35.422Z,52.00
2019-05-22T04:24:35.328Z,56.00
2019-05-22T04:25:35.272Z,56.00
2019-05-22T04:26:35.224Z,64.00
2019-05-22T04:27:35.174Z,72.00
2019-05-22T04:28:35.217Z,72.00
2019-05-22T04:29:35.078Z,76.00
2019-05-22T04:30:35.015Z,84.00
2019-05-22T04:31:34.962Z,92.00
2019-05-22T04:32:34.909Z,96.00
2019-05-22T04:33:34.899Z,96.00
2019-05-22T04:34:34.812Z,96.00
2019-05-22T04:35:34.775Z,108.00
2019-05-22T04:36:34.709Z,104.00
2019-05-22T04:37:34.650Z,108.00
2019-05-22T04:38:34.629Z,108.00
2019-05-22T04:39:34.546Z,104.00
2019-05-22T04:40:34.495Z,112.00
2019-05-22T04:41:34.442Z,108.00
2019-05-22T04:42:34.392Z,112.00
2019-05-22T04:43:34.391Z,112.00
2019-05-22T04:44:34.317Z,120.00
2019-05-22T04:45:34.235Z,128.00
2019-05-22T04:46:34.186Z,132.00
2019-05-22T04:47:34.135Z,136.00
2019-05-22T04:48:34.083Z,132.00
2019-05-22T04:49:34.058Z,132.00
2019-05-22T04:50:34.040Z,132.00
2019-05-22T04:51:33.956Z,132.00
2019-05-22T04:52:33.873Z,136.00
2019-05-22T04:53:33.820Z,136.00
2019-05-22T04:54:33.774Z,136.00
2019-05-22T04:55:33.717Z,136.00
2019-05-22T04:56:33.765Z,140.00
2019-05-22T04:57:33.700Z,144.00
2019-05-22T04:58:33.567Z,152.00
2019-05-22T04:59:33.508Z,152.00
2019-05-22T05:00:33.457Z,156.00
2019-05-22T05:01:33.485Z,164.00
2019-05-22T05:02:33.352Z,168.00
2019-05-22T05:03:33.303Z,180.00
2019-05-22T05:04:33.253Z,196.00
2019-05-22T05:05:33.194Z,200.00
2019-05-22T05:06:33.193Z,204.00
2019-05-22T05:07:33.093Z,216.00
2019-05-22T05:08:33.081Z,228.00
2019-05-22T05:09:32.991Z,232.00
2019-05-22T05:10:32.940Z,240.00
2019-05-22T05:11:32.884Z,244.00
2019-05-22T05:12:32.839Z,240.00
2019-05-22T05:13:32.816Z,256.00
2019-05-22T05:14:32.774Z,256.00
2019-05-22T05:15:32.678Z,260.00
2019-05-22T05:16:32.626Z,252.00
2019-05-22T05:17:32.580Z,244.00
2019-05-22T05:18:32.522Z,240.00
2019-05-22T05:19:32.505Z,252.00
2019-05-22T05:20:32.423Z,248.00
2019-05-22T05:21:32.368Z,272.00
2019-05-22T05:22:32.315Z,276.00
2019-05-22T05:23:32.273Z,284.00
2019-05-22T05:24:32.254Z,296.00
2019-05-22T05:25:32.158Z,284.00
2019-05-22T05:26:32.137Z,288.00
2019-05-22T05:27:32.061Z,288.00
2019-05-22T05:28:32.005Z,316.00
2019-05-22T05:29:31.989Z,304.00
2019-05-22T05:30:31.900Z,292.00
2019-05-22T05:31:31.852Z,308.00
2019-05-22T05:32:31.796Z,308.00
2019-05-22T05:33:31.743Z,312.00
2019-05-22T05:34:31.733Z,308.00
2019-05-22T05:35:31.642Z,292.00
2019-05-22T05:36:31.595Z,280.00
2019-05-22T05:37:31.535Z,268.00
2019-05-22T05:38:31.484Z,276.00
2019-05-22T05:39:31.471Z,276.00
2019-05-22T05:40:31.394Z,268.00
2019-05-22T05:41:31.359Z,272.00
2019-05-22T05:42:31.279Z,264.00
2019-05-22T05:43:31.224Z,264.00
2019-05-22T05:44:31.174Z,256.00
2019-05-22T05:45:31.120Z,256.00
2019-05-22T05:46:31.098Z,264.00
2019-05-22T05:47:31.019Z,288.00
2019-05-22T05:48:30.966Z,312.00
2019-05-22T05:49:30.927Z,332.00
2019-05-22T05:50:39.495Z,344.00
2019-05-22T05:51:30.817Z,356.00
2019-05-22T05:52:30.779Z,376.00
2019-05-22T05:53:30.722Z,404.00
2019-05-22T05:54:30.663Z,428.00
2019-05-22T05:55:30.665Z,452.00
2019-05-22T05:56:30.554Z,452.00
2019-05-22T05:57:30.541Z,440.00
2019-05-22T05:58:30.450Z,436.00
2019-05-22T05:59:30.398Z,408.00
2019-05-22T06:00:30.343Z,384.00
2019-05-22T06:01:30.300Z,400.00
2019-05-22T06:02:30.279Z,384.00
2019-05-22T06:03:30.188Z,380.00
2019-05-22T06:04:34.786Z,380.00
2019-05-22T06:05:30.083Z,368.00
2019-05-22T06:06:30.034Z,364.00
2019-05-22T06:07:30.018Z,392.00
2019-05-22T06:08:29.929Z,412.00
2019-05-22T06:09:29.876Z,428.00
2019-05-22T06:10:29.830Z,448.00
2019-05-22T06:11:29.773Z,416.00
2019-05-22T06:12:29.752Z,348.00
2019-05-22T06:13:29.668Z,300.00
2019-05-22T06:14:29.652Z,288.00
2019-05-22T06:15:45.615Z,284.00
2019-05-22T06:16:29.515Z,276.00
2019-05-22T06:17:29.464Z,288.00
2019-05-22T06:18:29.413Z,260.00
2019-05-22T06:19:29.392Z,264.00
2019-05-22T06:20:29.307Z,296.00
2019-05-22T06:21:29.254Z,324.00
2019-05-22T06:22:29.200Z,372.00
2019-05-22T06:23:29.156Z,368.00
2019-05-22T06:24:29.138Z,368.00
2019-05-22T06:25:29.046Z,380.00
2019-05-22T06:26:28.998Z,400.00
2019-05-22T06:27:28.944Z,424.00
2019-05-22T06:28:28.890Z,444.00
2019-05-22T06:29:29.035Z,428.00
2019-05-22T06:30:28.786Z,428.00
2019-05-22T06:31:28.736Z,404.00
2019-05-22T06:32:28.687Z,384.00
2019-05-22T06:33:28.632Z,368.00
2019-05-22T06:34:28.630Z,416.00
2019-05-22T06:35:28.526Z,440.00
2019-05-22T06:36:28.473Z,412.00
2019-05-22T06:37:28.422Z,380.00
2019-05-22T06:38:28.371Z,444.00
2019-05-22T06:39:28.370Z,472.00
2019-05-22T06:40:28.267Z,552.00
2019-05-22T06:41:28.248Z,572.00
2019-05-22T06:42:28.169Z,672.00
2019-05-22T06:43:28.118Z,652.00
2019-05-22T06:44:28.060Z,668.00
2019-05-22T06:45:28.050Z,692.00
2019-05-22T06:46:27.956Z,656.00
2019-05-22T06:47:27.903Z,724.00
2019-05-22T06:48:27.852Z,784.00
2019-05-22T06:49:27.806Z,936.00
2019-05-22T06:50:27.810Z,1080.00
2019-05-22T06:51:27.696Z,916.00
2019-05-22T06:52:27.646Z,824.00
2019-05-22T06:53:27.596Z,904.00
2019-05-22T06:54:27.611Z,936.00
2019-05-22T06:55:27.528Z,944.00
2019-05-22T06:56:27.440Z,872.00
2019-05-22T06:57:27.391Z,872.00
2019-05-22T06:58:27.335Z,1272.00
2019-05-22T06:59:27.285Z,1252.00
2019-05-22T07:00:27.274Z,1188.00
2019-05-22T07:01:27.181Z,1164.00
2019-05-22T07:02:27.160Z,1392.00
2019-05-22T07:03:27.084Z,1312.00
2019-05-22T07:04:27.035Z,1420.00
2019-05-22T07:05:27.005Z,1600.00
2019-05-22T07:06:26.923Z,1332.00
2019-05-22T07:07:26.870Z,1344.00
2019-05-22T07:08:26.828Z,1684.00
2019-05-22T07:09:26.769Z,1872.00
2019-05-22T07:10:26.754Z,1856.00
2019-05-22T07:11:26.667Z,1868.00
2019-05-22T07:12:26.619Z,1996.00
2019-05-22T07:13:26.563Z,2088.00
2019-05-22T07:14:26.541Z,1864.00
2019-05-22T07:15:26.460Z,1812.00
2019-05-22T07:16:26.407Z,2196.00
2019-05-22T07:17:26.360Z,2020.00
2019-05-22T07:18:26.305Z,1920.00
2019-05-22T07:19:26.296Z,1900.00
2019-05-22T07:20:26.202Z,1656.00
2019-05-22T07:21:33.725Z,1600.00
2019-05-22T07:22:26.099Z,1872.00
2019-05-22T07:23:28.763Z,1940.00
2019-05-22T07:24:26.785Z,2060.00
2019-05-22T07:25:25.985Z,2292.00
2019-05-22T07:26:25.907Z,2364.00
2019-05-22T07:27:25.878Z,2144.00
2019-05-22T07:28:25.826Z,1968.00
2019-05-22T07:29:25.757Z,1864.00
2019-05-22T07:30:25.690Z,1772.00
2019-05-22T07:31:25.642Z,1824.00
2019-05-22T07:32:25.629Z,1764.00
2019-05-22T07:33:25.538Z,1708.00
2019-05-22T07:34:25.488Z,1620.00
2019-05-22T07:35:42.362Z,1716.00
2019-05-22T07:36:25.385Z,1972.00
2019-05-22T07:37:25.374Z,2008.00
2019-05-22T07:38:25.296Z,1980.00
2019-05-22T07:39:25.259Z,1952.00
2019-05-22T07:40:25.183Z,1920.00
2019-05-22T07:41:25.158Z,1840.00
2019-05-22T07:42:25.123Z,1740.00
2019-05-22T07:43:27.209Z,1688.00
2019-05-22T07:44:25.007Z,1772.00
2019-05-22T07:45:24.931Z,1880.00
2019-05-22T07:46:24.878Z,1868.00
2019-05-22T07:47:25.066Z,1876.00
2019-05-22T07:48:24.781Z,1868.00
2019-05-22T07:49:24.764Z,1792.00
2019-05-22T07:50:24.680Z,1692.00
2019-05-22T07:51:24.677Z,1692.00
2019-05-22T07:52:24.612Z,1572.00
2019-05-22T07:53:24.525Z,1580.00
2019-05-22T07:54:24.497Z,1616.00
2019-05-22T07:55:24.428Z,1584.00
2019-05-22T07:56:24.371Z,1452.00
2019-05-22T07:57:24.321Z,1244.00
2019-05-22T07:58:24.275Z,1072.00
2019-05-22T07:59:24.260Z,976.00
2019-05-22T08:00:24.173Z,884.00
2019-05-22T08:01:24.118Z,752.00
2019-05-22T08:02:24.068Z,668.00
2019-05-22T08:03:24.060Z,624.00
2019-05-22T08:04:23.985Z,596.00
2019-05-22T08:05:23.916Z,628.00
2019-05-22T08:06:23.868Z,668.00
2019-05-22T08:07:23.818Z,704.00
2019-05-22T08:08:23.821Z,764.00
2019-05-22T08:09:23.721Z,772.00
2019-05-22T08:10:23.666Z,748.00
2019-05-22T08:11:23.614Z,796.00
2019-05-22T08:12:23.724Z,832.00
2019-05-22T08:13:23.547Z,916.00
2019-05-22T08:14:23.486Z,1004.00
2019-05-22T08:15:23.495Z,1036.00
2019-05-22T08:16:23.415Z,1156.00
2019-05-22T08:17:23.371Z,1236.00
2019-05-22T08:18:23.274Z,1208.00
2019-05-22T08:19:23.223Z,1236.00
2019-05-22T08:20:23.157Z,1220.00
2019-05-22T08:21:23.787Z,1236.00
2019-05-22T08:22:23.063Z,1228.00
2019-05-22T08:23:29.807Z,1248.00
2019-05-22T08:24:22.974Z,1304.00
2019-05-22T08:25:22.913Z,1360.00
2019-05-22T08:26:25.031Z,1428.00
2019-05-22T08:27:22.822Z,1496.00
2019-05-22T08:28:22.749Z,1508.00
2019-05-22T08:29:22.738Z,1512.00
2019-05-22T08:30:22.651Z,1512.00
2019-05-22T08:31:22.602Z,1520.00
2019-05-22T08:32:23.282Z,1512.00
2019-05-22T08:33:22.501Z,1472.00
2019-05-22T08:34:22.497Z,1416.00
2019-05-22T08:35:22.395Z,1376.00
2019-05-22T08:36:22.344Z,1244.00
2019-05-22T08:37:22.291Z,1188.00
2019-05-22T08:38:22.260Z,1148.00
2019-05-22T08:39:22.254Z,1096.00
2019-05-22T08:40:22.145Z,1056.00
2019-05-22T08:41:22.091Z,1016.00
2019-05-22T08:42:22.036Z,904.00
2019-05-22T08:43:21.986Z,796.00
2019-05-22T08:44:21.969Z,708.00
2019-05-22T08:45:21.891Z,712.00
2019-05-22T08:46:21.834Z,724.00
2019-05-22T08:47:21.786Z,712.00
2019-05-22T08:48:21.749Z,756.00
2019-05-22T08:49:21.711Z,788.00
2019-05-22T08:50:22.320Z,780.00
2019-05-22T08:51:21.589Z,800.00
2019-05-22T08:52:23.935Z,852.00
2019-05-22T08:53:21.529Z,916.00
2019-05-22T08:54:21.477Z,992.00
2019-05-22T08:55:21.430Z,1088.00
2019-05-22T08:56:22.295Z,1156.00
2019-05-22T08:57:21.280Z,1228.00
2019-05-22T08:58:21.230Z,1236.00
2019-05-22T08:59:21.188Z,1220.00
2019-05-22T09:00:21.160Z,1244.00
2019-05-22T09:01:21.072Z,1192.00
2019-05-22T09:02:21.045Z,1152.00
2019-05-22T09:03:20.995Z,1156.00
2019-05-22T09:04:20.927Z,1148.00
2019-05-22T09:05:21.818Z,1152.00
2019-05-22T09:06:20.822Z,924.00
2019-05-22T09:07:20.791Z,840.00
2019-05-22T09:08:20.718Z,940.00
2019-05-22T09:09:20.664Z,1208.00
2019-05-22T09:10:20.626Z,1392.00
2019-05-22T09:11:20.587Z,1468.00
2019-05-22T09:12:20.513Z,1480.00
2019-05-22T09:13:20.461Z,1456.00
2019-05-22T09:14:20.446Z,1516.00
2019-05-22T09:15:20.360Z,1500.00
2019-05-22T09:16:20.355Z,1456.00
2019-05-22T09:17:20.258Z,1464.00
2019-05-22T09:18:20.237Z,1564.00
2019-05-22T09:19:20.185Z,1700.00
2019-05-22T09:20:20.106Z,1792.00
2019-05-22T09:21:20.060Z,1872.00
2019-05-22T09:22:20.005Z,1872.00
2019-05-22T09:23:19.987Z,1884.00
2019-05-22T09:24:19.903Z,1936.00
2019-05-22T09:25:19.864Z,1884.00
2019-05-22T09:26:19.854Z,1996.00
2019-05-22T09:27:19.749Z,1924.00
2019-05-22T09:28:19.703Z,1828.00
2019-05-22T09:29:19.652Z,1840.00
2019-05-22T09:30:19.629Z,1952.00
2019-05-22T09:31:19.545Z,1936.00
2019-05-22T09:32:19.497Z,2012.00
2019-05-22T09:33:19.444Z,2004.00
2019-05-22T09:34:19.408Z,2372.00
2019-05-22T09:35:19.481Z,2688.00
2019-05-22T09:36:19.291Z,2788.00
2019-05-22T09:37:19.254Z,2704.00
2019-05-22T09:38:19.196Z,2692.00
2019-05-22T09:39:19.139Z,2668.00
2019-05-22T09:40:19.123Z,2808.00
2019-05-22T09:41:19.040Z,2968.00
2019-05-22T09:42:18.993Z,3056.00
2019-05-22T09:43:18.944Z,2864.00
2019-05-22T09:44:18.891Z,2936.00
2019-05-22T09:45:18.878Z,3012.00
2019-05-22T09:46:18.789Z,3144.00
2019-05-22T09:47:18.738Z,3352.00
2019-05-22T09:48:18.690Z,3508.00
2019-05-22T09:49:18.640Z,3564.00
2019-05-22T09:50:18.615Z,3644.00
2019-05-22T09:51:18.574Z,3740.00
2019-05-22T09:52:18.486Z,3768.00
2019-05-22T09:53:18.436Z,3756.00
2019-05-22T09:54:18.393Z,3748.00
2019-05-22T09:55:18.368Z,3628.00
2019-05-22T09:56:18.337Z,3548.00
2019-05-22T09:57:18.254Z,3488.00
2019-05-22T09:58:18.204Z,3452.00
2019-05-22T09:59:18.137Z,3424.00
2019-05-22T10:00:18.095Z,3356.00
2019-05-22T10:01:18.071Z,3336.00
2019-05-22T10:02:17.993Z,3192.00
2019-05-22T10:03:17.941Z,2928.00
2019-05-22T10:04:17.900Z,2936.00
2019-05-22T10:05:17.841Z,3032.00
2019-05-22T10:06:17.825Z,3236.00
2019-05-22T10:07:17.741Z,3432.00
2019-05-22T10:08:17.692Z,3616.00
2019-05-22T10:09:17.643Z,3932.00
2019-05-22T10:10:17.592Z,4276.00
2019-05-22T10:11:17.580Z,4800.00
2019-05-22T10:12:17.524Z,4912.00
2019-05-22T10:13:17.455Z,4920.00
2019-05-22T10:14:17.397Z,4744.00
2019-05-22T10:15:17.347Z,4816.00
2019-05-22T10:16:17.331Z,4920.00
2019-05-22T10:17:17.251Z,5436.00
2019-05-22T10:18:17.231Z,5616.00
2019-05-22T10:19:17.157Z,5284.00
2019-05-22T10:20:17.106Z,5440.00
2019-05-22T10:21:17.124Z,5256.00
2019-05-22T10:22:17.013Z,5060.00
2019-05-22T10:23:16.959Z,4272.00
2019-05-22T10:24:16.914Z,5260.00
2019-05-22T10:25:17.441Z,3596.00
2019-05-22T10:26:16.848Z,3348.00
2019-05-22T10:27:16.772Z,2700.00
2019-05-22T10:28:16.720Z,2204.00
2019-05-22T10:29:16.669Z,2244.00
2019-05-22T10:30:16.622Z,2400.00
2019-05-22T10:31:17.892Z,2176.00
2019-05-22T10:32:16.523Z,2052.00
2019-05-22T10:33:16.547Z,1988.00
2019-05-22T10:34:16.432Z,1996.00
2019-05-22T10:35:16.415Z,1904.00
2019-05-22T10:36:16.366Z,1688.00
2019-05-22T10:37:16.283Z,1584.00
2019-05-22T10:38:16.236Z,1544.00
2019-05-22T10:39:16.223Z,1440.00
2019-05-22T10:40:16.138Z,1440.00
2019-05-22T10:41:16.128Z,1352.00
2019-05-22T10:42:16.042Z,1156.00
2019-05-22T10:43:16.056Z,1092.00
2019-05-22T10:44:15.975Z,1024.00
2019-05-22T10:45:15.902Z,956.00
2019-05-22T10:46:15.857Z,952.00
2019-05-22T10:47:18.658Z,952.00
2019-05-22T10:48:15.752Z,952.00
2019-05-22T10:49:15.740Z,1020.00
2019-05-22T10:50:15.654Z,1100.00
2019-05-22T10:51:15.604Z,1212.00
2019-05-22T10:52:15.557Z,1340.00
2019-05-22T10:53:30.659Z,1452.00
2019-05-22T10:54:15.458Z,1524.00
2019-05-22T10:55:15.443Z,1592.00
2019-05-22T10:56:15.359Z,1636.00
2019-05-22T10:57:15.315Z,1660.00
2019-05-22T10:58:15.307Z,1660.00
2019-05-22T10:59:15.217Z,1600.00
2019-05-22T11:00:15.170Z,1532.00
2019-05-22T11:01:15.122Z,1468.00
2019-05-22T11:02:15.069Z,1232.00
2019-05-22T11:03:15.053Z,1084.00
2019-05-22T11:04:18.957Z,1000.00
2019-05-22T11:05:14.920Z,928.00
2019-05-22T11:06:14.879Z,884.00
2019-05-22T11:07:14.829Z,876.00
2019-05-22T11:08:14.805Z,804.00
2019-05-22T11:09:14.724Z,784.00
2019-05-22T11:10:14.682Z,800.00
2019-05-22T11:11:14.658Z,880.00
2019-05-22T11:12:14.576Z,928.00
2019-05-22T11:13:14.529Z,940.00
2019-05-22T11:14:14.482Z,1008.00
2019-05-22T11:15:14.430Z,1100.00
2019-05-22T11:16:14.418Z,1212.00
2019-05-22T11:17:14.346Z,1308.00
2019-05-22T11:18:14.282Z,1444.00
2019-05-22T11:19:14.258Z,1612.00
2019-05-22T11:20:14.203Z,1768.00
2019-05-22T11:21:14.164Z,1944.00
2019-05-22T11:22:14.083Z,2088.00
2019-05-22T11:23:14.040Z,2124.00
2019-05-22T11:24:13.986Z,2212.00
2019-05-22T11:25:13.944Z,2284.00
2019-05-22T11:26:13.918Z,2284.00
2019-05-22T11:27:13.863Z,2276.00
2019-05-22T11:28:13.787Z,2212.00
2019-05-22T11:29:13.761Z,2100.00
2019-05-22T11:30:13.720Z,1896.00
2019-05-22T11:31:13.649Z,1632.00
2019-05-22T11:32:13.592Z,1412.00
2019-05-22T11:33:13.540Z,1236.00
2019-05-22T11:34:13.492Z,996.00
2019-05-22T11:35:13.475Z,816.00
2019-05-22T11:36:13.393Z,728.00
2019-05-22T11:37:13.343Z,704.00
2019-05-22T11:38:13.295Z,684.00
2019-05-22T11:39:13.247Z,672.00
2019-05-22T11:40:13.233Z,732.00
2019-05-22T11:41:13.145Z,784.00
2019-05-22T11:42:13.123Z,796.00
2019-05-22T11:43:13.085Z,848.00
2019-05-22T11:44:12.999Z,948.00
2019-05-22T11:45:12.945Z,1108.00
2019-05-22T11:46:12.935Z,1124.00
2019-05-22T11:47:12.846Z,1112.00
2019-05-22T11:48:12.805Z,1120.00
2019-05-22T11:49:12.777Z,1184.00
2019-05-22T11:50:12.736Z,1264.00
2019-05-22T11:51:12.648Z,1328.00
2019-05-22T11:52:12.597Z,1420.00
2019-05-22T11:53:12.546Z,1560.00
2019-05-22T11:54:12.532Z,1664.00
2019-05-22T11:55:12.471Z,1816.00
2019-05-22T11:56:12.415Z,1984.00
2019-05-22T11:57:12.347Z,2084.00
2019-05-22T11:58:12.298Z,2144.00
2019-05-22T11:59:12.249Z,2172.00
2019-05-22T12:00:12.231Z,2208.00
2019-05-22T12:01:12.147Z,2172.00
2019-05-22T12:02:12.099Z,2024.00
2019-05-22T12:03:12.081Z,1916.00
2019-05-22T12:04:12.003Z,1876.00
2019-05-22T12:05:11.952Z,1764.00
2019-05-22T12:06:11.899Z,1616.00
2019-05-22T12:07:11.848Z,1452.00
2019-05-22T12:08:11.831Z,1328.00
2019-05-22T12:09:11.749Z,1204.00
2019-05-22T12:10:11.702Z,1120.00
2019-05-22T12:11:11.650Z,1076.00
2019-05-22T12:12:11.600Z,1072.00
2019-05-22T12:13:11.908Z,1072.00
2019-05-22T12:14:11.562Z,1072.00
2019-05-22T12:15:11.456Z,1092.00
2019-05-22T12:16:11.401Z,1100.00
2019-05-22T12:17:11.350Z,1092.00
2019-05-22T12:18:11.297Z,1124.00
2019-05-22T12:19:11.286Z,1164.00
2019-05-22T12:20:11.204Z,1208.00
2019-05-22T12:21:11.154Z,1292.00
2019-05-22T12:22:11.135Z,1368.00
2019-05-22T12:23:11.050Z,1424.00
2019-05-22T12:24:26.069Z,1536.00
2019-05-22T12:25:10.955Z,1620.00
2019-05-22T12:26:10.899Z,1704.00
2019-05-22T12:27:10.883Z,1692.00
2019-05-22T12:28:10.823Z,1672.00
2019-05-22T12:29:10.751Z,1672.00
2019-05-22T12:30:10.699Z,1688.00
2019-05-22T12:31:10.703Z,1660.00
2019-05-22T12:32:10.605Z,1636.00
2019-05-22T12:33:13.995Z,1652.00
2019-05-22T12:34:10.501Z,1696.00